createdAt,value
2019-04-29T00:01:40.508Z,14.40
2019-04-29T00:04:11.434Z,12.67
2019-04-29T00:06:42.126Z,14.87
2019-04-29T00:09:17.819Z,15.00
2019-04-29T00:11:48.577Z,17.07
2019-04-29T00:14:19.522Z,16.67
2019-04-29T00:16:50.053Z,14.57
2019-04-29T00:19:25.023Z,13.37
2019-04-29T00:21:55.976Z,12.83
2019-04-29T00:24:26.914Z,14.97
2019-04-29T00:26:57.602Z,14.90
2019-04-29T00:29:29.256Z,16.10
2019-04-29T00:31:59.965Z,13.37
2019-04-29T00:34:31.031Z,13.93
2019-04-29T00:37:03.546Z,13.73
2019-04-29T00:39:52.215Z,12.93
2019-04-29T00:42:30.210Z,13.60
2019-04-29T00:45:00.930Z,13.80
2019-04-29T00:47:31.691Z,13.70
2019-04-29T00:50:02.441Z,14.37
2019-04-29T00:52:34.200Z,14.37
2019-04-29T00:55:07.647Z,12.63
2019-04-29T00:57:38.326Z,12.90
2019-04-29T01:00:12.647Z,12.00
2019-04-29T01:02:43.583Z,12.43
2019-04-29T01:05:14.496Z,12.43
2019-04-29T01:07:45.170Z,14.57
2019-04-29T01:10:16.401Z,12.17
2019-04-29T01:12:47.075Z,13.17
2019-04-29T01:15:17.947Z,12.23
2019-04-29T01:17:49.059Z,12.97
2019-04-29T01:20:19.792Z,12.73
2019-04-29T01:22:50.768Z,12.33
2019-04-29T01:25:21.573Z,13.43
2019-04-29T01:28:02.313Z,11.60
2019-04-29T01:31:00.951Z,14.37
2019-04-29T01:33:31.970Z,13.43
2019-04-29T01:36:15.654Z,14.40
2019-04-29T01:38:51.047Z,12.50
2019-04-29T01:41:23.610Z,12.33
2019-04-29T01:44:01.908Z,11.93
2019-04-29T01:46:32.930Z,13.30
2019-04-29T01:49:03.862Z,13.43
2019-04-29T01:51:35.247Z,12.63
2019-04-29T01:54:06.560Z,11.10
2019-04-29T01:56:37.834Z,12.37
2019-04-29T01:59:08.978Z,10.60
2019-04-29T02:01:39.885Z,12.90
2019-04-29T02:04:10.537Z,10.90
2019-04-29T02:06:41.220Z,12.87
2019-04-29T02:09:16.830Z,11.23
2019-04-29T02:11:47.886Z,11.17
2019-04-29T02:14:19.016Z,11.13
2019-04-29T02:16:49.727Z,12.13
2019-04-29T02:19:20.463Z,13.47
2019-04-29T02:22:08.392Z,12.30
2019-04-29T02:24:47.534Z,10.33
2019-04-29T02:27:18.228Z,11.47
2019-04-29T02:29:48.951Z,10.73
2019-04-29T02:32:19.980Z,10.50
2019-04-29T02:34:50.686Z,10.63
2019-04-29T02:37:23.413Z,12.13
2019-04-29T02:40:04.949Z,11.43
2019-04-29T02:42:39.938Z,10.07
2019-04-29T02:45:16.459Z,9.73
2019-04-29T02:47:47.122Z,12.03
2019-04-29T02:50:18.356Z,10.77
2019-04-29T02:52:49.007Z,9.87
2019-04-29T02:55:21.664Z,10.03
2019-04-29T02:57:56.744Z,8.73
2019-04-29T03:00:36.523Z,10.67
2019-04-29T03:03:08.826Z,12.93
2019-04-29T03:05:41.223Z,10.43
2019-04-29T03:08:11.984Z,11.40
2019-04-29T03:10:43.042Z,10.70
2019-04-29T03:13:13.768Z,8.90
2019-04-29T03:15:45.129Z,9.17
2019-04-29T03:18:16.804Z,8.57
2019-04-29T03:20:57.900Z,8.27
2019-04-29T03:23:28.668Z,8.70
2019-04-29T03:25:59.344Z,9.73
2019-04-29T03:28:31.393Z,9.40
2019-04-29T03:31:02.079Z,9.03
2019-04-29T03:33:32.868Z,9.47
2019-04-29T03:36:03.558Z,9.97
2019-04-29T03:38:34.235Z,8.83
2019-04-29T03:41:05.264Z,10.00
2019-04-29T03:43:35.931Z,9.23
2019-04-29T03:46:06.688Z,9.70
2019-04-29T03:48:37.459Z,10.80
2019-04-29T03:51:08.390Z,11.00
2019-04-29T03:53:39.142Z,10.17
2019-04-29T03:56:10.091Z,10.17
2019-04-29T03:58:40.743Z,10.23
2019-04-29T04:01:19.036Z,11.07
2019-04-29T04:03:51.618Z,10.13
2019-04-29T04:06:24.218Z,9.77
2019-04-29T04:09:05.486Z,12.00
2019-04-29T04:11:29.173Z,11.00
2019-04-29T04:14:00.638Z,11.73
2019-04-29T04:16:33.001Z,12.20
2019-04-29T04:19:07.483Z,10.90
2019-04-29T04:21:38.456Z,11.97
2019-04-29T04:24:09.383Z,12.87
2019-04-29T04:26:40.119Z,10.93
2019-04-29T04:29:10.779Z,13.73
2019-04-29T04:31:41.541Z,11.87
2019-04-29T04:34:12.488Z,12.00
2019-04-29T04:36:43.271Z,12.30
2019-04-29T04:39:13.956Z,11.83
2019-04-29T04:41:51.127Z,13.77
2019-04-29T04:44:17.697Z,13.27
2019-04-29T04:46:48.758Z,12.33
2019-04-29T04:49:20.099Z,13.97
2019-04-29T04:51:52.885Z,12.37
2019-04-29T04:54:25.581Z,16.67
2019-04-29T04:56:57.310Z,12.50
2019-04-29T04:59:29.631Z,10.73
2019-04-29T05:02:01.035Z,11.03
2019-04-29T05:04:31.705Z,11.53
2019-04-29T05:07:02.868Z,12.40
2019-04-29T05:09:35.872Z,13.00
2019-04-29T05:12:06.840Z,12.37
2019-04-29T05:14:37.704Z,15.03
2019-04-29T05:17:11.792Z,12.60
2019-04-29T05:19:47.927Z,14.03
2019-04-29T05:22:18.623Z,13.57
2019-04-29T05:24:49.294Z,13.60
2019-04-29T05:27:20.728Z,14.83
2019-04-29T05:29:51.794Z,14.47
2019-04-29T05:32:23.059Z,15.73
2019-04-29T05:34:55.651Z,14.47
2019-04-29T05:37:37.138Z,17.03
2019-04-29T05:40:07.961Z,16.67
2019-04-29T05:42:38.948Z,15.10
2019-04-29T05:45:16.884Z,15.97
2019-04-29T05:47:52.299Z,15.30
2019-04-29T05:50:39.399Z,19.10
2019-04-29T05:53:18.179Z,18.07
2019-04-29T05:55:52.533Z,20.03
2019-04-29T05:58:22.795Z,23.63
2019-04-29T06:00:55.601Z,19.40
2019-04-29T06:03:33.491Z,18.87
2019-04-29T06:06:06.605Z,22.00
2019-04-29T06:08:39.315Z,22.93
2019-04-29T06:11:10.260Z,18.70
2019-04-29T06:13:40.990Z,20.30
2019-04-29T06:16:15.850Z,20.20
2019-04-29T06:18:44.609Z,19.37
2019-04-29T06:21:18.211Z,19.80
2019-04-29T06:23:48.934Z,20.27
2019-04-29T06:26:20.021Z,18.37
2019-04-29T06:28:51.063Z,21.93
2019-04-29T06:31:21.739Z,21.07
2019-04-29T06:33:52.945Z,22.53
2019-04-29T06:36:23.891Z,21.30
2019-04-29T06:38:55.108Z,22.27
2019-04-29T06:41:26.169Z,18.87
2019-04-29T06:44:00.645Z,19.57
2019-04-29T06:46:29.576Z,22.13
2019-04-29T06:49:10.171Z,23.80
2019-04-29T06:51:32.982Z,20.63
2019-04-29T06:54:03.932Z,21.80
2019-04-29T06:56:34.632Z,24.87
2019-04-29T06:59:07.583Z,23.67
2019-04-29T07:01:38.727Z,25.23
2019-04-29T07:04:10.031Z,23.67
2019-04-29T07:06:41.066Z,21.40
2019-04-29T07:09:11.736Z,23.47
2019-04-29T07:11:42.701Z,24.17
2019-04-29T07:14:13.679Z,26.63
2019-04-29T07:16:44.654Z,25.80
2019-04-29T07:19:15.647Z,23.30
2019-04-29T07:21:47.427Z,23.77
2019-04-29T07:24:20.450Z,25.90
2019-04-29T07:26:51.316Z,25.53
2019-04-29T07:29:29.670Z,27.17
2019-04-29T07:31:54.418Z,27.73
2019-04-29T07:34:29.001Z,28.40
2019-04-29T07:36:59.392Z,29.97
2019-04-29T07:39:33.497Z,26.73
2019-04-29T07:42:04.372Z,28.53
2019-04-29T07:44:44.288Z,29.90
2019-04-29T07:47:09.702Z,28.40
2019-04-29T07:49:40.380Z,24.10
2019-04-29T07:52:14.503Z,27.40
2019-04-29T07:54:43.446Z,24.93
2019-04-29T07:57:16.453Z,28.23
2019-04-29T07:59:46.846Z,31.03
2019-04-29T08:02:17.823Z,29.73
2019-04-29T08:04:48.494Z,32.67
2019-04-29T08:07:20.064Z,32.93
2019-04-29T08:09:52.632Z,33.10
2019-04-29T08:12:27.051Z,30.20
2019-04-29T08:15:07.634Z,31.70
2019-04-29T08:17:33.774Z,32.37
2019-04-29T08:20:06.470Z,34.63
2019-04-29T08:22:37.440Z,31.63
2019-04-29T08:25:09.533Z,34.43
2019-04-29T08:27:43.607Z,32.83
2019-04-29T08:30:13.560Z,35.47
2019-04-29T08:32:44.265Z,30.63
2019-04-29T08:35:15.371Z,30.13
2019-04-29T08:37:47.234Z,31.00
2019-04-29T08:40:18.630Z,26.90
2019-04-29T08:42:51.278Z,28.67
2019-04-29T08:45:39.071Z,24.93
2019-04-29T08:48:10.967Z,27.03
2019-04-29T08:50:41.707Z,24.83
2019-04-29T08:53:12.435Z,22.80
2019-04-29T08:55:43.120Z,24.63
2019-04-29T08:58:13.787Z,23.07
2019-04-29T09:00:44.986Z,24.47
2019-04-29T09:03:18.769Z,23.33
2019-04-29T09:06:04.366Z,25.37
2019-04-29T09:08:20.551Z,25.00
2019-04-29T09:10:51.355Z,24.40
2019-04-29T09:13:22.026Z,24.27
2019-04-29T09:15:52.746Z,22.70
2019-04-29T09:18:23.425Z,24.27
2019-04-29T09:20:54.420Z,25.50
2019-04-29T09:23:27.101Z,24.63
2019-04-29T09:26:11.456Z,26.03
2019-04-29T09:28:42.393Z,27.67
2019-04-29T09:31:14.326Z,30.57
2019-04-29T09:33:49.067Z,27.73
2019-04-29T09:36:17.368Z,28.77
2019-04-29T09:38:48.096Z,29.93
2019-04-29T09:41:23.438Z,27.97
2019-04-29T09:43:53.947Z,30.13
2019-04-29T09:46:30.093Z,29.33
2019-04-29T09:48:58.925Z,27.20
2019-04-29T09:51:29.808Z,32.90
2019-04-29T09:54:00.669Z,31.77
2019-04-29T09:56:34.565Z,28.20
2019-04-29T09:59:23.622Z,30.27
2019-04-29T10:02:05.389Z,28.73
2019-04-29T10:04:41.016Z,32.13
2019-04-29T10:07:13.722Z,26.30
2019-04-29T10:09:56.500Z,28.17
2019-04-29T10:12:17.405Z,26.07
2019-04-29T10:14:49.652Z,29.17
2019-04-29T10:17:23.053Z,27.83
2019-04-29T10:20:01.866Z,33.80
2019-04-29T10:22:34.977Z,29.03
2019-04-29T10:25:07.607Z,23.50
2019-04-29T10:27:38.589Z,23.60
2019-04-29T10:30:10.139Z,24.90
2019-04-29T10:32:42.367Z,20.50
2019-04-29T10:35:14.104Z,20.33
2019-04-29T10:37:45.100Z,18.63
2019-04-29T10:40:31.106Z,16.80
2019-04-29T10:43:15.387Z,16.63
2019-04-29T10:46:02.204Z,17.10
2019-04-29T10:48:35.687Z,15.90
2019-04-29T10:51:08.536Z,16.40
2019-04-29T10:53:39.569Z,16.10
2019-04-29T10:56:10.731Z,13.63
2019-04-29T10:58:41.654Z,13.53
2019-04-29T11:01:44.963Z,13.10
2019-04-29T11:04:15.875Z,13.83
2019-04-29T11:06:46.656Z,12.97
2019-04-29T11:09:25.317Z,12.83
2019-04-29T11:11:56.310Z,13.40
2019-04-29T11:14:27.250Z,12.63
2019-04-29T11:16:57.953Z,13.63
2019-04-29T11:19:29.399Z,12.60
2019-04-29T11:22:03.169Z,12.33
2019-04-29T11:24:39.618Z,12.10
2019-04-29T11:27:20.889Z,13.07
2019-04-29T11:29:52.009Z,12.67
2019-04-29T11:32:30.832Z,13.90
2019-04-29T11:35:06.251Z,12.27
2019-04-29T11:37:37.297Z,12.90
2019-04-29T11:40:08.530Z,12.13
2019-04-29T11:42:41.796Z,11.93
2019-04-29T11:45:13.861Z,12.77
2019-04-29T11:47:44.617Z,12.30
2019-04-29T11:50:22.979Z,11.93
2019-04-29T11:52:55.576Z,12.13
2019-04-29T11:55:26.282Z,12.43
2019-04-29T11:58:04.528Z,12.87
2019-04-29T12:00:53.319Z,11.67
2019-04-29T12:03:25.905Z,11.43
2019-04-29T12:05:58.290Z,11.40
2019-04-29T12:08:29.041Z,12.00
2019-04-29T12:11:07.209Z,12.37
2019-04-29T12:13:37.698Z,13.30
2019-04-29T12:16:13.084Z,14.57
2019-04-29T12:19:00.929Z,13.67
2019-04-29T12:21:33.766Z,14.87
2019-04-29T12:24:06.860Z,14.77
2019-04-29T12:26:43.169Z,15.03
2019-04-29T12:29:13.704Z,14.43
2019-04-29T12:32:03.364Z,15.90
2019-04-29T12:34:50.600Z,15.50
2019-04-29T12:37:25.658Z,17.47
2019-04-29T12:40:14.440Z,16.43
2019-04-29T12:42:48.867Z,17.53
2019-04-29T12:45:21.592Z,18.43
2019-04-29T12:47:52.739Z,17.93
2019-04-29T12:50:23.644Z,18.93
2019-04-29T12:52:54.766Z,19.53
2019-04-29T12:55:44.267Z,19.70
2019-04-29T12:58:02.798Z,19.57
2019-04-29T13:00:47.859Z,19.30
2019-04-29T13:03:25.468Z,18.90
2019-04-29T13:06:14.017Z,21.00
2019-04-29T13:08:46.329Z,19.63
2019-04-29T13:11:19.060Z,19.83
2019-04-29T13:13:51.500Z,19.93
2019-04-29T13:16:26.995Z,20.60
2019-04-29T13:19:10.814Z,21.97
2019-04-29T13:21:30.115Z,22.40
2019-04-29T13:24:13.435Z,22.47
2019-04-29T13:26:36.940Z,22.43
2019-04-29T13:29:06.177Z,22.43
2019-04-29T13:31:39.217Z,20.30
2019-04-29T13:34:23.509Z,21.43
2019-04-29T13:36:43.309Z,23.10
2019-04-29T13:39:14.300Z,21.43
2019-04-29T13:41:57.085Z,22.03
2019-04-29T13:44:19.649Z,20.83
2019-04-29T13:47:01.713Z,22.67
2019-04-29T13:49:40.299Z,21.27
2019-04-29T13:52:11.959Z,21.90
2019-04-29T13:54:44.296Z,21.20
2019-04-29T13:57:16.157Z,21.83
2019-04-29T13:59:59.040Z,21.73
2019-04-29T14:02:37.492Z,20.33
2019-04-29T14:05:11.043Z,22.87
2019-04-29T14:07:41.711Z,23.10
2019-04-29T14:10:14.983Z,21.00
2019-04-29T14:12:49.025Z,21.20
2019-04-29T14:15:18.828Z,23.23
2019-04-29T14:17:49.518Z,23.40
2019-04-29T14:20:20.626Z,25.63
2019-04-29T14:22:51.623Z,25.60
2019-04-29T14:25:22.706Z,25.30
2019-04-29T14:27:53.390Z,29.17
2019-04-29T14:30:38.025Z,25.90
2019-04-29T14:33:01.817Z,27.57
2019-04-29T14:35:36.374Z,23.73
2019-04-29T14:38:07.372Z,26.27
2019-04-29T14:40:41.167Z,25.67
2019-04-29T14:43:31.612Z,29.20
2019-04-29T14:46:15.934Z,32.40
2019-04-29T14:48:49.052Z,29.03
2019-04-29T14:51:20.078Z,32.50
2019-04-29T14:53:56.650Z,31.73
2019-04-29T14:56:23.159Z,32.23
2019-04-29T14:59:06.006Z,34.10
2019-04-29T15:01:30.886Z,35.73
2019-04-29T15:04:17.332Z,38.87
2019-04-29T15:06:36.198Z,39.00
2019-04-29T15:09:16.651Z,37.83
2019-04-29T15:11:58.639Z,39.67
2019-04-29T15:14:39.696Z,41.23
2019-04-29T15:17:14.937Z,39.40
2019-04-29T15:19:55.690Z,35.30
2019-04-29T15:22:30.835Z,38.30
2019-04-29T15:25:02.489Z,40.20
2019-04-29T15:27:33.461Z,46.57
2019-04-29T15:30:07.354Z,44.87
2019-04-29T15:32:38.381Z,46.00
2019-04-29T15:35:09.551Z,49.60
2019-04-29T15:37:40.218Z,48.60
2019-04-29T15:40:11.759Z,48.70
2019-04-29T15:42:46.275Z,50.77
2019-04-29T15:45:16.053Z,51.83
2019-04-29T15:47:47.258Z,52.93
2019-04-29T15:50:19.514Z,59.93
2019-04-29T15:52:50.603Z,57.37
2019-04-29T15:55:21.648Z,63.30
2019-04-29T15:57:53.122Z,61.33
2019-04-29T16:00:24.969Z,61.50
2019-04-29T16:02:56.593Z,69.67
2019-04-29T16:06:11.050Z,71.43
2019-04-29T16:08:37.705Z,71.60
2019-04-29T16:11:11.390Z,74.73
2019-04-29T16:13:47.756Z,75.70
2019-04-29T16:16:14.928Z,81.03
2019-04-29T16:18:45.894Z,80.70
2019-04-29T16:21:16.646Z,92.77
2019-04-29T16:23:47.331Z,87.13
2019-04-29T16:26:18.065Z,81.17
2019-04-29T16:28:49.517Z,85.63
2019-04-29T16:31:21.679Z,87.50
2019-04-29T16:33:54.634Z,82.20
2019-04-29T16:36:25.018Z,87.70
2019-04-29T16:38:56.038Z,82.57
2019-04-29T16:41:28.352Z,93.27
2019-04-29T16:43:59.348Z,89.83
2019-04-29T16:46:37.436Z,88.80
2019-04-29T16:49:06.732Z,84.43
2019-04-29T16:51:37.808Z,91.77
2019-04-29T16:54:12.890Z,86.27
2019-04-29T16:56:42.326Z,84.90
2019-04-29T16:59:13.269Z,79.93
2019-04-29T17:01:43.935Z,87.33
2019-04-29T17:04:14.953Z,84.90
2019-04-29T17:07:10.765Z,77.37
2019-04-29T17:09:33.945Z,75.13
2019-04-29T17:12:05.662Z,79.40
2019-04-29T17:15:02.444Z,71.73
2019-04-29T17:17:13.707Z,76.73
2019-04-29T17:19:44.499Z,70.77
2019-04-29T17:22:25.551Z,74.97
2019-04-29T17:24:47.665Z,70.97
2019-04-29T17:27:25.978Z,74.90
2019-04-29T17:30:08.965Z,74.00
2019-04-29T17:35:19.354Z,75.53
2019-04-29T17:35:21.824Z,73.77
2019-04-29T17:37:51.561Z,71.67
2019-04-29T17:40:24.147Z,71.70
2019-04-29T17:43:00.842Z,68.77
2019-04-29T17:45:42.882Z,76.30
2019-04-29T17:48:18.342Z,73.40
2019-04-29T17:50:59.021Z,77.10
2019-04-29T17:53:32.234Z,67.40
2019-04-29T17:56:21.256Z,68.43
2019-04-29T17:58:57.802Z,74.53
2019-04-29T18:01:42.592Z,71.10
2019-04-29T18:04:19.967Z,68.50
2019-04-29T18:06:50.635Z,62.17
2019-04-29T18:09:41.613Z,59.70
2019-04-29T18:12:16.627Z,61.70
2019-04-29T18:14:48.099Z,61.73
2019-04-29T18:17:27.453Z,58.63
2019-04-29T18:19:57.741Z,64.60
2019-04-29T18:22:28.460Z,63.87
2019-04-29T18:25:13.160Z,65.13
2019-04-29T18:27:49.157Z,61.53
2019-04-29T18:30:33.456Z,63.13
2019-04-29T18:32:55.119Z,67.37
2019-04-29T18:35:26.111Z,59.77
2019-04-29T18:37:56.797Z,60.90
2019-04-29T18:40:30.048Z,63.57
2019-04-29T18:43:00.879Z,63.63
2019-04-29T18:45:34.433Z,64.90
2019-04-29T18:48:08.510Z,58.93
2019-04-29T18:50:38.977Z,61.30
2019-04-29T18:53:10.174Z,63.03
2019-04-29T18:55:40.861Z,57.67
2019-04-29T18:58:12.140Z,58.03
2019-04-29T19:00:46.116Z,63.60
2019-04-29T19:03:17.374Z,61.13
2019-04-29T19:05:49.798Z,65.00
2019-04-29T19:08:23.375Z,63.40
2019-04-29T19:10:53.219Z,66.00
2019-04-29T19:13:26.012Z,65.73
2019-04-29T19:16:09.061Z,61.63
2019-04-29T19:18:29.701Z,61.37
2019-04-29T19:21:01.236Z,61.73
2019-04-29T19:23:32.429Z,59.07
2019-04-29T19:26:03.239Z,59.90
2019-04-29T19:28:36.971Z,63.53
2019-04-29T19:31:09.795Z,66.40
2019-04-29T19:33:41.806Z,59.80
2019-04-29T19:36:18.534Z,64.47
2019-04-29T19:38:48.469Z,62.53
2019-04-29T19:41:19.233Z,62.93
2019-04-29T19:43:55.131Z,64.00
2019-04-29T19:46:25.345Z,64.20
2019-04-29T19:49:00.083Z,60.20
2019-04-29T19:51:28.277Z,62.97
2019-04-29T19:53:59.456Z,60.37
2019-04-29T19:56:30.623Z,63.97
2019-04-29T19:59:08.460Z,56.07
2019-04-29T20:01:37.954Z,60.87
2019-04-29T20:04:15.797Z,62.37
2019-04-29T20:06:46.937Z,55.93
2019-04-29T20:09:21.706Z,63.57
2019-04-29T20:11:49.678Z,52.70
2019-04-29T20:14:26.279Z,55.53
2019-04-29T20:17:09.593Z,58.03
2019-04-29T20:19:55.280Z,55.37
2019-04-29T20:22:21.343Z,58.20
2019-04-29T20:24:55.791Z,56.00
2019-04-29T20:27:30.985Z,58.03
2019-04-29T20:30:00.818Z,54.50
2019-04-29T20:32:32.105Z,55.00
2019-04-29T20:35:08.575Z,55.77
2019-04-29T20:37:39.141Z,54.27
2019-04-29T20:40:10.493Z,56.07
2019-04-29T20:42:45.343Z,54.73
2019-04-29T20:45:15.543Z,55.83
2019-04-29T20:47:46.570Z,52.67
2019-04-29T20:50:17.892Z,57.37
2019-04-29T20:52:52.160Z,56.37
2019-04-29T20:55:23.385Z,55.83
2019-04-29T20:57:54.287Z,54.83
2019-04-29T21:00:26.938Z,55.60
2019-04-29T21:02:58.236Z,56.20
2019-04-29T21:05:29.083Z,57.23
2019-04-29T21:08:03.495Z,55.57
2019-04-29T21:10:33.445Z,60.60
2019-04-29T21:13:16.105Z,61.97
2019-04-29T21:16:02.234Z,55.77
2019-04-29T21:18:35.311Z,61.07
2019-04-29T21:21:07.862Z,62.53
2019-04-29T21:23:38.858Z,64.87
2019-04-29T21:26:10.103Z,66.73
2019-04-29T21:28:41.805Z,67.37
2019-04-29T21:31:16.610Z,71.93
2019-04-29T21:33:50.741Z,67.90
2019-04-29T21:36:20.899Z,64.60
2019-04-29T21:39:01.724Z,63.47
2019-04-29T21:41:31.405Z,62.03
2019-04-29T21:44:03.778Z,65.60
2019-04-29T21:46:37.308Z,66.33
2019-04-29T21:49:11.616Z,61.03
2019-04-29T21:51:46.569Z,55.60
2019-04-29T21:54:16.140Z,58.60
2019-04-29T21:56:48.172Z,47.53
2019-04-29T21:59:19.874Z,51.83
2019-04-29T22:01:50.695Z,49.10
2019-04-29T22:04:21.665Z,51.23
2019-04-29T22:06:52.706Z,44.07
2019-04-29T22:09:35.608Z,47.63
2019-04-29T22:11:57.528Z,43.57
2019-04-29T22:14:28.428Z,40.77
2019-04-29T22:16:59.115Z,40.73
2019-04-29T22:19:31.560Z,38.37
2019-04-29T22:22:02.230Z,38.93
2019-04-29T22:24:33.141Z,37.13
2019-04-29T22:27:06.058Z,37.10
2019-04-29T22:29:37.243Z,38.13
2019-04-29T22:32:14.481Z,42.57
2019-04-29T22:34:42.275Z,42.80
2019-04-29T22:37:13.084Z,40.57
2019-04-29T22:39:43.774Z,34.77
2019-04-29T22:42:17.379Z,38.13
2019-04-29T22:44:48.369Z,35.83
2019-04-29T22:47:23.474Z,36.60
2019-04-29T22:49:51.468Z,36.17
2019-04-29T22:52:25.494Z,31.20
2019-04-29T22:54:57.871Z,29.53
2019-04-29T22:57:28.169Z,29.03
2019-04-29T22:59:59.402Z,26.67
2019-04-29T23:02:30.425Z,22.40
2019-04-29T23:05:01.459Z,19.90
2019-04-29T23:07:32.503Z,21.97
2019-04-29T23:10:03.193Z,18.57
2019-04-29T23:12:35.291Z,20.63
2019-04-29T23:15:08.469Z,17.27
2019-04-29T23:17:42.595Z,15.60
2019-04-29T23:20:28.874Z,18.77
2019-04-29T23:23:00.644Z,16.53
2019-04-29T23:25:51.318Z,19.47
2019-04-29T23:28:26.903Z,14.63
2019-04-29T23:30:55.476Z,15.23
2019-04-29T23:33:26.509Z,13.40
2019-04-29T23:35:57.291Z,11.60
2019-04-29T23:38:29.506Z,14.90
2019-04-29T23:41:01.937Z,11.77
2019-04-29T23:43:32.721Z,16.33
2019-04-29T23:46:04.942Z,13.93
2019-04-29T23:48:39.329Z,13.53
2019-04-29T23:51:09.458Z,12.60
2019-04-29T23:53:40.126Z,14.27
2019-04-29T23:56:10.997Z,13.00
2019-04-29T23:58:46.791Z,13.80
